Baton Rouge, LA

6:45 PM CST on January 31, 2015 (GMT -0600)
Chez Buda | Change Station
CLOSE
Current Station
Personal Weather Station
Location: Baton Rouge, LA
Elevation: 75 ft
Nearby Weather Stations

Elev 75 ft 30.45 °N, 91.06 °W | Updated 8 days ago

Partly Cloudy
Partly Cloudy
58 °F
Feels Like 58 °F
N
8
Wind Variable Wind from East
Gusts 11 mph

Today
High -- | Low -- °F
--% Chance of Precip.
Yesterday
High -- | Low -- °F
Precip. -- in
6:56 AM 5:40 PM
Waxing Gibbous, 92% visible
Pressure 30.16 in
Visibility 10.0 miles
Clouds Clear
Dew Point 46 °F
Humidity 61%
Rainfall 0.00 in
Snow Depth Not available.
UV 0 out of 12
Pollen 7.60 out of 12
Air Quality Not available.
Flu Activity Not available.
METAR KBTR 312353Z 10010KT 10SM CLR 13/08 A3016 RMK AO2 SLP211 T01330083 10167 20133 56007

More Conditions Fewer Conditions

Pressure 30.16 in
Visibility 10.0 miles
Clouds Clear
Dew Point 46 °F
Humidity 61%
Rainfall 0.00 in
Snow Depth Not available.
UV 0 out of 12
Pollen 7.60 out of 12
Air Quality Not available.
Flu Activity Not available.
METAR KBTR 312353Z 10010KT 10SM CLR 13/08 A3016 RMK AO2 SLP211 T01330083 10167 20133 56007

More Conditions Fewer Conditions

10-Day Weather Forecast

Almanac

Astronomy

Jan. 31, 2015 Rise Set
Actual Time
Civil Twilight
Nautical Twilight
Astronomical Twilight
Moon
Length of Visible Light
Length of Day
Tomorrow will be .
, % of the Moon is Illuminated

Today's Extremes

State Highs State Lows

Community

WunderPhotos

Upload Photos

1,792,265 photos uploaded!

WunderBlogs® & News

Nearby

Air Quality

  Air Quality AQ Index Pollutant
Not available.

Snow Depth

Station Depth Elevation

Earthquake Activity

City Distance Mag. Time & Date
Minimum magnitude displayed is 2.5.

Coastal Water Temperatures

Place Temperature

Nearby Weather Stations